Time;durP1;ratioP1;P1;durP2;ratioP2;P2;SDS_P1;SDS_P2;PMS_P1;PMS_P2;Temp;Humidity;BMP_temperature;BMP_pressure;BME280_temperature;BME280_humidity;BME280_pressure;Samples;Min_cycle;Max_cycle;Signal;HPM_P1;HPM_P2
2021/10/01 00:00:07;;;;;;;18.08;12.35;;;435.60;1868.80;;;;;;4939379;29;20466;-72
2021/10/01 00:02:33;;;;;;;22.52;13.88;;;435.60;1868.80;;;;;;4938774;29;20063;-72
2021/10/01 00:05:00;;;;;;;20.92;12.57;;;435.60;1868.80;;;;;;4939100;29;20056;-72
2021/10/01 00:07:28;;;;;;;20.45;12.82;;;435.60;1868.80;;;;;;4939401;29;20028;-72
2021/10/01 00:09:54;;;;;;;18.20;13.32;;;435.60;1868.80;;;;;;4939111;29;20044;-72
2021/10/01 00:12:20;;;;;;;22.00;13.45;;;435.60;1868.80;;;;;;4938967;29;20027;-72
2021/10/01 00:14:46;;;;;;;20.00;13.55;;;435.60;1868.80;;;;;;4939420;29;20103;-72
2021/10/01 00:17:12;;;;;;;20.95;12.63;;;435.60;1868.80;;;;;;4939164;29;20466;-73
2021/10/01 00:19:38;;;;;;;20.20;13.15;;;435.60;1868.80;;;;;;4939103;29;20107;-72
2021/10/01 00:22:04;;;;;;;20.35;13.65;;;435.60;1868.80;;;;;;4938994;29;20051;-72
2021/10/01 00:24:32;;;;;;;21.15;13.43;;;435.60;1868.80;;;;;;4939152;29;20031;-72
2021/10/01 00:26:57;;;;;;;21.38;13.68;;;435.60;1868.80;;;;;;4938862;29;20351;-72
2021/10/01 00:29:24;;;;;;;18.70;12.93;;;435.60;1868.80;;;;;;4938835;29;20158;-72
2021/10/01 00:31:50;;;;;;;19.88;12.82;;;435.60;1868.80;;;;;;4938553;29;20488;-72
2021/10/01 00:34:16;;;;;;;18.60;12.75;;;435.60;1868.80;;;;;;4938710;29;20032;-72
2021/10/01 00:36:41;;;;;;;22.70;13.48;;;435.60;1868.80;;;;;;4938504;29;20054;-73
2021/10/01 00:39:07;;;;;;;18.73;13.82;;;435.60;1868.80;;;;;;4938652;29;20079;-72
2021/10/01 00:41:33;;;;;;;20.02;13.30;;;435.60;1868.80;;;;;;4938720;29;20028;-72
2021/10/01 00:43:59;;;;;;;16.48;12.52;;;435.60;1868.80;;;;;;4938857;29;20038;-72
2021/10/01 00:46:26;;;;;;;18.30;12.70;;;435.60;1868.80;;;;;;4938405;29;20110;-72
2021/10/01 00:48:52;;;;;;;20.42;12.57;;;435.60;1894.40;;;;;;4938383;29;20461;-72
2021/10/01 00:51:18;;;;;;;18.67;12.88;;;435.60;1894.40;;;;;;4938219;29;20031;-72
2021/10/01 00:53:46;;;;;;;18.90;13.30;;;435.60;1868.80;;;;;;4938369;29;20473;-72
2021/10/01 00:56:12;;;;;;;19.40;12.10;;;435.60;1868.80;;;;;;4938562;29;20024;-72
2021/10/01 00:58:37;;;;;;;18.05;12.80;;;435.60;1868.80;;;;;;4938455;29;20509;-72
2021/10/01 01:01:10;;;;;;;20.10;13.35;;;435.60;1868.80;;;;;;4938333;29;20028;-72
2021/10/01 01:03:44;;;;;;;17.15;12.68;;;435.60;1894.40;;;;;;4938176;29;20024;-72
2021/10/01 01:06:34;;;;;;;18.33;12.02;;;435.60;1868.80;;;;;;4938164;29;20097;-72
2021/10/01 01:09:09;;;;;;;17.35;12.85;;;435.60;1894.40;;;;;;4938427;29;20040;-72
2021/10/01 01:11:43;;;;;;;19.80;12.00;;;435.60;1894.40;;;;;;4938202;29;20469;-72
2021/10/01 01:14:19;;;;;;;16.70;11.68;;;435.60;1868.80;;;;;;4937783;29;20035;-72
2021/10/01 01:16:46;;;;;;;15.98;11.18;;;435.60;1868.80;;;;;;4937841;29;20038;-72
2021/10/01 01:19:30;;;;;;;15.55;11.93;;;435.60;1868.80;;;;;;4938077;29;20042;-72
2021/10/01 01:22:16;;;;;;;16.80;11.90;;;435.60;1868.80;;;;;;4937350;29;20393;-72
2021/10/01 01:25:01;;;;;;;16.38;11.50;;;435.60;1868.80;;;;;;4937830;29;20039;-72
2021/10/01 01:27:50;;;;;;;15.32;11.25;;;435.60;1868.80;;;;;;4920635;29;20039;-72
2021/10/01 01:30:20;;;;;;;18.20;12.18;;;435.60;1868.80;;;;;;4937807;29;20059;-72
2021/10/01 01:32:48;;;;;;;15.30;11.50;;;435.60;1868.80;;;;;;4937501;29;20454;-72
2021/10/01 01:35:20;;;;;;;15.40;11.32;;;435.60;1894.40;;;;;;4937566;29;20016;-72
2021/10/01 01:37:57;;;;;;;27.35;11.25;;;435.60;1868.80;;;;;;4937287;29;20090;-73
2021/10/01 01:40:27;;;;;;;15.82;11.25;;;435.60;1868.80;;;;;;4937522;29;20028;-74
2021/10/01 01:42:56;;;;;;;15.88;11.52;;;435.60;1894.40;;;;;;4937500;29;20027;-70
2021/10/01 01:45:22;;;;;;;16.00;10.50;;;435.60;1868.80;;;;;;4937321;29;20055;-70
2021/10/01 01:47:49;;;;;;;16.35;11.73;;;435.60;1868.80;;;;;;4937068;29;20023;-74
2021/10/01 01:50:16;;;;;;;19.50;12.00;;;435.60;1894.40;;;;;;4937270;29;20038;-70
2021/10/01 01:52:43;;;;;;;16.75;12.20;;;435.60;1868.80;;;;;;4937275;29;20023;-74
2021/10/01 01:55:09;;;;;;;15.52;10.70;;;435.60;1868.80;;;;;;4938074;29;20058;-74
2021/10/01 01:57:36;;;;;;;15.52;11.23;;;435.60;1868.80;;;;;;4937241;29;20027;-70
2021/10/01 02:00:03;;;;;;;19.40;10.93;;;435.60;1868.80;;;;;;4937104;29;20054;-74
2021/10/01 02:02:30;;;;;;;15.48;11.18;;;435.60;1894.40;;;;;;4937373;29;20086;-74
2021/10/01 02:04:58;;;;;;;21.70;12.43;;;435.60;1868.80;;;;;;4937048;29;20355;-73
2021/10/01 02:07:24;;;;;;;15.45;10.88;;;435.60;1894.40;;;;;;4937086;29;20031;-70
2021/10/01 02:09:51;;;;;;;17.33;12.10;;;435.60;1894.40;;;;;;4936907;29;20486;-74
2021/10/01 02:12:17;;;;;;;19.67;13.65;;;435.60;1894.40;;;;;;4937119;29;20031;-70
2021/10/01 02:14:48;;;;;;;18.55;12.23;;;435.60;1894.40;;;;;;4936952;29;20035;-74
2021/10/01 02:17:16;;;;;;;16.13;11.80;;;435.60;1894.40;;;;;;4936303;29;20099;-70
2021/10/01 02:19:46;;;;;;;15.95;11.35;;;435.60;1894.40;;;;;;4936972;29;20038;-73
2021/10/01 02:22:13;;;;;;;16.55;11.93;;;435.60;1894.40;;;;;;4936740;29;20295;-74
2021/10/01 02:24:38;;;;;;;18.35;12.50;;;435.60;1894.40;;;;;;4919654;29;20482;-74
2021/10/01 02:27:10;;;;;;;23.75;13.02;;;435.60;1894.40;;;;;;4936886;29;20031;-70
2021/10/01 02:29:57;;;;;;;17.70;12.43;;;435.60;1894.40;;;;;;4936648;29;20040;-73
2021/10/01 02:32:36;;;;;;;20.05;12.63;;;435.60;1894.40;;;;;;4936983;29;20374;-72
2021/10/01 02:35:04;;;;;;;19.42;12.27;;;435.60;1894.40;;;;;;4936495;29;20032;-70
2021/10/01 02:37:30;;;;;;;23.98;13.20;;;435.60;1894.40;;;;;;4936389;29;20520;-70
2021/10/01 02:39:57;;;;;;;19.00;13.40;;;435.50;1894.40;;;;;;4936595;29;20031;-70
2021/10/01 02:42:25;;;;;;;17.40;12.02;;;435.60;1894.40;;;;;;4936325;29;20103;-74
2021/10/01 02:44:52;;;;;;;19.35;12.60;;;435.60;1894.40;;;;;;4936909;29;20020;-70
2021/10/01 02:47:19;;;;;;;17.85;11.98;;;435.60;1894.40;;;;;;4936672;29;20375;-72
2021/10/01 02:49:46;;;;;;;16.00;12.02;;;435.50;1894.40;;;;;;4936449;29;20070;-70
2021/10/01 02:52:26;;;;;;;18.05;11.82;;;435.50;1894.40;;;;;;4936617;29;20028;-73
2021/10/01 02:55:12;;;;;;;17.63;11.68;;;435.60;1894.40;;;;;;4919277;29;20034;-73
2021/10/01 02:58:00;;;;;;;18.98;11.25;;;435.60;1894.40;;;;;;4919238;29;20047;-73
2021/10/01 03:00:26;;;;;;;17.48;12.18;;;435.50;1920.00;;;;;;4936427;29;20425;-70
2021/10/01 03:02:54;;;;;;;17.20;12.15;;;435.50;1920.00;;;;;;4936084;29;20119;-72
2021/10/01 03:05:23;;;;;;;21.25;11.98;;;435.40;1920.00;;;;;;4936359;29;20020;-73
2021/10/01 03:07:50;;;;;;;18.33;11.20;;;435.50;1920.00;;;;;;4936292;29;20020;-72
2021/10/01 03:10:16;;;;;;;15.77;10.88;;;435.50;1920.00;;;;;;4936227;29;20099;-72
2021/10/01 03:12:44;;;;;;;20.02;11.88;;;435.50;1920.00;;;;;;4936190;29;20035;-72
2021/10/01 03:15:12;;;;;;;15.05;11.88;;;435.50;1920.00;;;;;;4936703;29;20028;-73
2021/10/01 03:17:40;;;;;;;20.70;12.40;;;435.50;1920.00;;;;;;4936145;29;20038;-72
2021/10/01 03:20:07;;;;;;;19.63;12.52;;;435.50;1920.00;;;;;;4936202;29;20032;-73
2021/10/01 03:22:37;;;;;;;25.70;12.90;;;435.60;1920.00;;;;;;4936243;29;20036;-73
2021/10/01 03:25:03;;;;;;;23.45;12.70;;;435.60;1920.00;;;;;;4936095;29;20106;-73
2021/10/01 03:27:32;;;;;;;19.98;12.52;;;435.60;1920.00;;;;;;4937338;29;20495;-73
2021/10/01 03:29:59;;;;;;;22.30;12.70;;;435.60;1920.00;;;;;;4939878;29;20095;-73
2021/10/01 03:32:26;;;;;;;17.17;12.48;;;435.60;1920.00;;;;;;4939654;29;20430;-73
2021/10/01 03:34:55;;;;;;;22.45;12.52;;;435.60;1920.00;;;;;;4939876;29;20031;-73
2021/10/01 03:37:21;;;;;;;19.52;12.07;;;435.50;1920.00;;;;;;4939458;29;20391;-72
2021/10/01 03:40:05;;;;;;;20.33;13.55;;;435.50;1920.00;;;;;;4939976;29;20030;-72
2021/10/01 03:42:30;;;;;;;19.77;13.77;;;435.50;1920.00;;;;;;4939634;29;20035;-73
2021/10/01 03:44:56;;;;;;;22.10;13.50;;;435.50;1920.00;;;;;;4939561;29;20036;-73
2021/10/01 03:47:22;;;;;;;21.95;13.80;;;435.50;1920.00;;;;;;4939513;29;20035;-72
2021/10/01 03:49:48;;;;;;;25.25;14.63;;;435.50;1920.00;;;;;;4939675;29;20035;-72
2021/10/01 03:52:14;;;;;;;30.70;15.13;;;435.50;1920.00;;;;;;4939217;29;20378;-72
2021/10/01 03:54:43;;;;;;;27.25;14.02;;;435.40;1920.00;;;;;;4939338;29;20020;-72
2021/10/01 03:57:08;;;;;;;20.02;13.60;;;435.40;1920.00;;;;;;4939600;29;20497;-73
2021/10/01 03:59:34;;;;;;;23.10;14.57;;;435.40;1945.60;;;;;;4939455;29;20031;-73
2021/10/01 04:02:00;;;;;;;20.35;13.52;;;435.40;1945.60;;;;;;4939322;29;20051;-72
2021/10/01 04:04:26;;;;;;;22.23;15.07;;;435.40;1945.60;;;;;;4938572;29;20028;-72
2021/10/01 04:06:51;;;;;;;20.30;13.40;;;435.40;1945.60;;;;;;4939196;29;20034;-73
2021/10/01 04:09:17;;;;;;;23.67;15.20;;;435.40;1945.60;;;;;;4939208;29;20059;-73
2021/10/01 04:11:43;;;;;;;20.30;13.65;;;435.40;1945.60;;;;;;4939255;29;20035;-73
2021/10/01 04:14:09;;;;;;;21.65;14.15;;;435.40;1945.60;;;;;;4939216;29;20064;-72
2021/10/01 04:16:34;;;;;;;25.17;13.90;;;435.40;1945.60;;;;;;4939082;29;20031;-72
2021/10/01 04:19:00;;;;;;;21.42;14.35;;;435.40;1945.60;;;;;;4939043;29;20032;-72
2021/10/01 04:21:26;;;;;;;24.48;14.60;;;435.40;1945.60;;;;;;4938733;29;20023;-73
2021/10/01 04:23:52;;;;;;;22.02;15.43;;;435.40;1945.60;;;;;;4939108;29;20032;-72
2021/10/01 04:26:18;;;;;;;23.55;14.68;;;435.40;1945.60;;;;;;4939014;29;20370;-73
2021/10/01 04:28:45;;;;;;;26.90;15.65;;;435.40;1945.60;;;;;;4938800;29;20035;-73
2021/10/01 04:31:19;;;;;;;23.20;15.52;;;435.40;1945.60;;;;;;4938535;29;20078;-73
2021/10/01 04:33:45;;;;;;;;;;;435.40;1945.60;;;;;;4939121;29;20039;-72
2021/10/01 04:36:12;;;;;;;20.60;15.63;;;435.40;1945.60;;;;;;4938630;29;19911;-72
2021/10/01 04:38:39;;;;;;;25.30;15.73;;;435.30;1945.60;;;;;;4938033;29;20024;-72
2021/10/01 04:41:05;;;;;;;28.80;16.50;;;435.30;1945.60;;;;;;4938230;29;20110;-72
2021/10/01 04:43:30;;;;;;;26.77;16.77;;;435.30;1945.60;;;;;;4938843;29;20055;-72
2021/10/01 04:45:56;;;;;;;27.50;17.52;;;435.30;1945.60;;;;;;4938731;29;20444;-71
2021/10/01 04:48:22;;;;;;;30.38;18.40;;;435.30;1945.60;;;;;;4938484;29;20036;-71
2021/10/01 04:50:48;;;;;;;32.35;20.67;;;435.30;1971.20;;;;;;4938304;29;20032;-73
2021/10/01 04:53:14;;;;;;;33.13;22.08;;;435.30;1971.20;;;;;;4938376;29;20095;-72
2021/10/01 04:55:39;;;;;;;30.38;19.23;;;435.30;1971.20;;;;;;4938548;29;20474;-73
2021/10/01 04:58:06;;;;;;;30.35;17.95;;;435.30;1971.20;;;;;;4938179;29;20027;-71
2021/10/01 05:00:33;;;;;;;28.33;16.52;;;435.30;1971.20;;;;;;4938285;29;20047;-72
2021/10/01 05:02:59;;;;;;;21.92;15.90;;;435.30;1971.20;;;;;;4938165;29;20023;-72
2021/10/01 05:05:25;;;;;;;24.95;15.05;;;435.30;1971.20;;;;;;4938249;29;20036;-72
2021/10/01 05:07:51;;;;;;;26.35;15.65;;;435.30;1971.20;;;;;;4937869;29;20055;-73
2021/10/01 05:10:17;;;;;;;30.55;13.73;;;435.30;1971.20;;;;;;4938318;29;20051;-71
2021/10/01 05:12:43;;;;;;;27.60;13.35;;;435.40;1945.60;;;;;;4938152;29;20027;-71
2021/10/01 05:15:10;;;;;;;19.92;12.90;;;435.30;1971.20;;;;;;4938522;29;20031;-71
2021/10/01 05:17:38;;;;;;;15.15;12.20;;;435.30;1945.60;;;;;;4938151;29;20020;-72
2021/10/01 05:20:06;;;;;;;19.73;12.02;;;435.30;1945.60;;;;;;4938248;29;20031;-71
2021/10/01 05:22:32;;;;;;;18.40;12.32;;;435.40;1945.60;;;;;;4937814;29;20057;-71
2021/10/01 05:24:58;;;;;;;22.35;15.00;;;435.40;1945.60;;;;;;4937686;29;20162;-71
2021/10/01 05:27:24;;;;;;;27.35;17.35;;;435.40;1945.60;;;;;;4937741;29;20122;-71
2021/10/01 05:29:50;;;;;;;37.00;18.48;;;435.40;1945.60;;;;;;4937650;29;20042;-71
2021/10/01 05:32:16;;;;;;;26.83;17.00;;;435.40;1945.60;;;;;;4937493;29;20024;-71
2021/10/01 05:34:41;;;;;;;31.27;18.50;;;435.40;1945.60;;;;;;4937286;29;20027;-70
2021/10/01 05:37:07;;;;;;;25.10;17.25;;;435.40;1945.60;;;;;;4937454;29;20049;-70
2021/10/01 05:39:33;;;;;;;30.10;16.25;;;435.40;1945.60;;;;;;4937800;29;20106;-71
2021/10/01 05:41:59;;;;;;;21.00;15.35;;;435.50;1945.60;;;;;;4937628;29;20445;-72
2021/10/01 05:44:25;;;;;;;20.38;14.30;;;435.40;1945.60;;;;;;4937614;29;20036;-71
2021/10/01 05:46:52;;;;;;;24.88;15.07;;;435.40;1945.60;;;;;;4937601;29;20095;-71
2021/10/01 05:49:21;;;;;;;22.13;15.32;;;435.40;1945.60;;;;;;4937474;29;20028;-71
2021/10/01 05:51:58;;;;;;;25.83;14.38;;;435.40;1945.60;;;;;;4935380;29;20035;-70
2021/10/01 05:54:24;;;;;;;22.05;15.35;;;435.50;1945.60;;;;;;4936549;29;20015;-70
2021/10/01 05:56:55;;;;;;;26.42;14.55;;;435.50;1945.60;;;;;;4936432;29;20379;-71
2021/10/01 05:59:24;;;;;;;18.25;14.30;;;435.50;1945.60;;;;;;4936742;29;20098;-70
2021/10/01 06:01:49;;;;;;;24.50;16.30;;;435.50;1945.60;;;;;;4931886;29;20497;-71
2021/10/01 06:04:15;;;;;;;25.52;15.77;;;435.60;1945.60;;;;;;4936317;29;20027;-70
2021/10/01 06:06:41;;;;;;;22.83;14.88;;;435.60;1945.60;;;;;;4936695;29;20454;-71
2021/10/01 06:09:12;;;;;;;19.60;12.73;;;435.60;1945.60;;;;;;4931387;29;20130;-70
2021/10/01 06:11:40;;;;;;;27.30;13.88;;;435.60;1945.60;;;;;;4937192;29;20035;-71
2021/10/01 06:14:07;;;;;;;21.05;12.95;;;435.60;1945.60;;;;;;4937358;29;20032;-70
2021/10/01 06:16:34;;;;;;;22.05;12.55;;;435.60;1945.60;;;;;;4937065;29;20044;-70
2021/10/01 06:19:00;;;;;;;17.55;12.38;;;435.70;1945.60;;;;;;4937110;29;20028;-70
2021/10/01 06:21:27;;;;;;;21.90;13.23;;;435.60;1945.60;;;;;;4918342;29;20074;-70
2021/10/01 06:23:52;;;;;;;22.75;13.07;;;435.70;1945.60;;;;;;4936853;29;20039;-71
2021/10/01 06:26:18;;;;;;;22.45;12.98;;;435.70;1945.60;;;;;;4936912;29;20028;-71
2021/10/01 06:28:44;;;;;;;21.08;12.73;;;435.70;1945.60;;;;;;4935495;29;20040;-70
2021/10/01 06:31:10;;;;;;;19.23;13.80;;;435.70;1945.60;;;;;;4936525;29;20107;-70
2021/10/01 06:33:35;;;;;;;21.25;13.90;;;435.70;1945.60;;;;;;4935494;29;20473;-71
2021/10/01 06:36:02;;;;;;;22.02;14.43;;;435.70;1945.60;;;;;;4935350;29;20040;-70
2021/10/01 06:38:31;;;;;;;21.10;14.05;;;435.70;1945.60;;;;;;4935857;29;20051;-70
2021/10/01 06:41:00;;;;;;;19.30;12.98;;;435.70;1971.20;;;;;;4935552;29;20019;-70
2021/10/01 06:43:30;;;;;;;20.73;14.40;;;435.80;1971.20;;;;;;4935841;29;20024;-70
2021/10/01 06:45:58;;;;;;;21.95;13.38;;;435.90;1945.60;;;;;;4935508;29;20031;-70
2021/10/01 08:19:56;;;;;;;15.23;9.35;;;461.50;1843.20;;;;;;4939480;29;20050;-70
2021/10/01 08:22:22;;;;;;;14.23;8.55;;;461.60;1817.60;;;;;;4939007;29;20031;-71
2021/10/01 08:24:48;;;;;;;14.82;8.30;;;461.60;1817.60;;;;;;4939029;29;20035;-70
2021/10/01 08:27:15;;;;;;;16.50;9.23;;;486.40;1792.00;;;;;;4938957;29;20075;-70
2021/10/01 08:29:41;;;;;;;18.77;8.15;;;486.50;1792.00;;;;;;4938865;29;20071;-70
2021/10/01 08:32:07;;;;;;;14.05;7.45;;;486.50;1766.40;;;;;;4939169;29;20050;-70
2021/10/01 08:34:36;;;;;;;16.33;7.88;;;486.70;1638.40;;;;;;4939055;29;20043;-70
2021/10/01 08:37:01;;;;;;;16.23;6.97;;;486.80;1561.60;;;;;;4938619;29;20048;-71
2021/10/01 08:39:27;;;;;;;24.42;7.05;;;486.90;1561.60;;;;;;4937989;29;20030;-70
2021/10/01 08:41:53;;;;;;;15.70;7.13;;;487.00;1536.00;;;;;;4938645;29;20035;-70
2021/10/01 08:44:19;;;;;;;18.40;7.40;;;487.00;1536.00;;;;;;4921465;29;20038;-69
2021/10/01 08:46:47;;;;;;;18.92;7.45;;;487.10;1484.80;;;;;;4921153;29;20482;-70
2021/10/01 08:49:14;;;;;;;29.40;9.13;;;487.10;1484.80;;;;;;4938691;29;20047;-70
2021/10/01 08:51:41;;;;;;;26.10;8.18;;;487.10;1459.20;;;;;;4938441;29;20027;-70
2021/10/01 08:54:07;;;;;;;20.15;7.38;;;487.20;1459.20;;;;;;4938454;29;20031;-70
2021/10/01 08:56:33;;;;;;;16.08;7.10;;;487.30;1459.20;;;;;;4938657;29;20102;-69
2021/10/01 08:58:59;;;;;;;15.00;7.05;;;512.00;1459.20;;;;;;4938318;29;20486;-70
2021/10/01 09:01:25;;;;;;;15.93;7.57;;;512.00;1459.20;;;;;;4938426;29;20071;-71
2021/10/01 09:03:51;;;;;;;14.32;6.55;;;512.10;1484.80;;;;;;4938360;29;20087;-70
2021/10/01 09:06:18;;;;;;;17.05;7.05;;;512.20;1484.80;;;;;;4938301;29;20024;-70
2021/10/01 09:08:57;;;;;;;20.02;8.18;;;512.40;1459.20;;;;;;4938161;29;20047;-69
2021/10/01 09:11:46;;;;;;;15.95;8.20;;;512.50;1459.20;;;;;;4938342;29;20042;-69
2021/10/01 09:14:21;;;;;;;21.38;8.25;;;512.80;1433.60;;;;;;4938350;29;20050;-69
2021/10/01 09:16:47;;;;;;;;;;;537.60;1459.20;;;;;;4938698;29;20042;-69
2021/10/01 09:19:12;;;;;;;25.08;8.40;;;537.70;1459.20;;;;;;4938152;29;20345;-69
2021/10/01 09:21:48;;;;;;;17.52;9.15;;;537.90;1408.00;;;;;;4937958;29;20032;-70
2021/10/01 09:24:16;;;;;;;15.82;9.00;;;538.10;1408.00;;;;;;4938112;29;20038;-70
2021/10/01 09:26:53;;;;;;;22.08;9.40;;;538.10;1408.00;;;;;;4937619;29;20032;-69
2021/10/01 09:29:24;;;;;;;16.60;9.10;;;538.20;1356.80;;;;;;4937823;29;20042;-70
2021/10/01 09:31:51;;;;;;;18.45;8.63;;;538.30;1356.80;;;;;;4937861;29;20023;-70
2021/10/01 09:34:22;;;;;;;22.27;8.23;;;538.50;1382.40;;;;;;4937919;29;20034;-71
2021/10/01 09:37:08;;;;;;;19.05;9.85;;;563.20;1408.00;;;;;;4937624;29;20047;-70
2021/10/01 09:39:40;;;;;;;15.65;9.45;;;563.20;1408.00;;;;;;4937819;29;20028;-69
2021/10/01 09:42:10;;;;;;;25.05;9.80;;;563.30;1382.40;;;;;;4937711;29;20032;-69
2021/10/01 09:44:52;;;;;;;17.33;7.80;;;563.50;1331.20;;;;;;4937713;29;20440;-71
2021/10/01 09:47:25;;;;;;;21.55;8.10;;;563.60;1356.80;;;;;;4937479;29;20066;-69
2021/10/01 09:49:56;;;;;;;14.75;7.03;;;563.70;1356.80;;;;;;4937149;29;20099;-71
2021/10/01 09:52:22;;;;;;;14.02;6.43;;;563.70;1331.20;;;;;;4937267;29;20055;-70
2021/10/01 09:54:48;;;;;;;16.40;6.95;;;563.80;1280.00;;;;;;4937449;29;20031;-70
2021/10/01 09:57:14;;;;;;;20.02;7.20;;;563.80;1280.00;;;;;;4920205;29;21037;-69
2021/10/01 09:59:39;;;;;;;18.83;7.43;;;563.90;1254.40;;;;;;4937177;29;20473;-69
2021/10/01 10:02:14;;;;;;;18.70;6.63;;;563.90;1254.40;;;;;;4937089;29;20027;-69
2021/10/01 10:04:44;;;;;;;12.38;7.22;;;564.00;1254.40;;;;;;4937126;29;20027;-69
2021/10/01 10:07:27;;;;;;;18.35;6.95;;;564.00;1254.40;;;;;;4937115;29;20019;-69
2021/10/01 10:10:03;;;;;;;22.05;7.97;;;564.10;1254.40;;;;;;4936918;29;20036;-70
2021/10/01 10:12:39;;;;;;;21.52;6.93;;;588.80;1228.80;;;;;;4937105;29;20067;-70
2021/10/01 10:15:14;;;;;;;14.65;6.63;;;588.80;1228.80;;;;;;4937091;29;20072;-70
2021/10/01 10:17:49;;;;;;;16.23;7.03;;;588.80;1228.80;;;;;;4937113;29;20039;-69
2021/10/01 10:20:16;;;;;;;18.98;7.40;;;588.80;1177.60;;;;;;4937106;29;20032;-69
2021/10/01 10:22:41;;;;;;;14.70;6.18;;;588.80;1177.60;;;;;;4936900;29;20106;-70
2021/10/01 10:25:08;;;;;;;12.63;6.80;;;588.80;1177.60;;;;;;4937082;29;20421;-70
2021/10/01 10:27:33;;;;;;;15.77;6.90;;;588.80;1177.60;;;;;;4936854;29;20024;-70
2021/10/01 10:29:59;;;;;;;11.07;6.32;;;588.80;1177.60;;;;;;4936685;29;20055;-69
2021/10/01 10:32:29;;;;;;;14.45;6.78;;;588.80;1177.60;;;;;;4936870;29;20056;-71
2021/10/01 10:35:06;;;;;;;18.15;7.15;;;564.10;1203.20;;;;;;4936904;29;20492;-70
2021/10/01 10:37:44;;;;;;;18.20;6.97;;;564.10;1177.60;;;;;;4935902;29;20110;-70
2021/10/01 10:40:15;;;;;;;11.73;6.70;;;564.00;1203.20;;;;;;4936729;29;20027;-70
2021/10/01 10:42:46;;;;;;;12.10;6.15;;;564.00;1228.80;;;;;;4919206;29;20039;-69
2021/10/01 10:45:14;;;;;;;15.05;6.65;;;564.00;1203.20;;;;;;4936731;29;20034;-70
2021/10/01 10:47:42;;;;;;;21.58;6.78;;;564.00;1177.60;;;;;;4936819;29;20042;-69
2021/10/01 10:50:42;;;;;;;13.80;5.43;;;564.00;1152.00;;;;;;4936410;29;20500;-70
2021/10/01 10:53:13;;;;;;;20.58;6.40;;;564.00;1126.40;;;;;;4936625;29;20028;-70
2021/10/01 10:55:44;;;;;;;11.38;5.40;;;564.00;1126.40;;;;;;4936496;29;20024;-70
2021/10/01 10:58:22;;;;;;;20.35;7.45;;;564.00;1126.40;;;;;;4936625;29;20496;-69
2021/10/01 11:00:51;;;;;;;29.02;6.68;;;564.00;1126.40;;;;;;4936430;29;20035;-69
2021/10/01 11:03:28;;;;;;;28.98;6.70;;;564.10;1126.40;;;;;;4936402;29;20027;-70
2021/10/01 11:06:13;;;;;;;13.77;6.00;;;564.10;1075.20;;;;;;4936508;29;20397;-69
2021/10/01 11:09:09;;;;;;;19.38;5.95;;;564.00;1075.20;;;;;;4936434;29;20036;-70
2021/10/01 11:11:48;;;;;;;16.10;5.43;;;564.00;1100.80;;;;;;4936253;29;20028;-70
2021/10/01 11:14:19;;;;;;;21.23;5.72;;;564.10;1075.20;;;;;;4936453;29;20079;-69
2021/10/01 11:16:52;;;;;;;27.25;7.65;;;564.00;1100.80;;;;;;4936663;29;20020;-70
2021/10/01 11:19:35;;;;;;;17.95;6.82;;;564.00;1100.80;;;;;;4936248;29;20028;-69
2021/10/01 11:22:28;;;;;;;11.38;6.05;;;564.00;1126.40;;;;;;4936225;29;20046;-69
2021/10/01 11:25:12;;;;;;;15.77;6.80;;;564.00;1152.00;;;;;;4935983;29;20063;-69
2021/10/01 11:27:56;;;;;;;16.15;7.05;;;564.00;1152.00;;;;;;4936143;29;20521;-68
2021/10/01 11:30:23;;;;;;;17.25;6.22;;;564.00;1152.00;;;;;;4936207;29;20047;-69
2021/10/01 11:32:49;;;;;;;14.23;5.30;;;564.00;1152.00;;;;;;4936118;29;20028;-70
2021/10/01 11:35:16;;;;;;;14.55;6.13;;;564.10;1126.40;;;;;;4936275;29;20508;-69
2021/10/01 11:37:45;;;;;;;13.80;5.70;;;564.10;1126.40;;;;;;4918575;29;20076;-69
2021/10/01 11:40:27;;;;;;;22.05;7.30;;;564.00;1100.80;;;;;;4936123;29;20111;-69
2021/10/01 11:42:58;;;;;;;20.58;7.18;;;564.00;1100.80;;;;;;4935872;29;20024;-69
2021/10/01 11:45:27;;;;;;;18.20;6.75;;;564.00;1126.40;;;;;;4935771;29;20032;-69
2021/10/01 11:47:56;;;;;;;14.40;6.38;;;564.00;1126.40;;;;;;4936085;29;20040;-69
2021/10/01 11:50:37;;;;;;;12.77;6.28;;;564.00;1152.00;;;;;;4939882;29;20497;-68
2021/10/01 11:53:18;;;;;;;10.82;6.60;;;564.00;1152.00;;;;;;4939415;29;20043;-69
2021/10/01 11:55:56;;;;;;;17.65;7.22;;;564.00;1152.00;;;;;;4937823;29;20067;-68
2021/10/01 11:58:24;;;;;;;11.55;6.53;;;564.00;1177.60;;;;;;4934474;29;20035;-68
2021/10/01 12:00:51;;;;;;;19.13;6.60;;;564.00;1177.60;;;;;;4937962;29;20111;-68
2021/10/01 12:03:18;;;;;;;17.20;6.15;;;564.00;1177.60;;;;;;4938279;29;20020;-68
2021/10/01 12:05:49;;;;;;;21.13;7.38;;;564.00;1177.60;;;;;;4937417;29;20024;-69
2021/10/01 12:08:19;;;;;;;13.68;6.90;;;564.00;1177.60;;;;;;4937697;29;20024;-68
2021/10/01 12:10:57;;;;;;;22.75;6.47;;;563.90;1177.60;;;;;;4937793;29;20028;-69
2021/10/01 12:13:28;;;;;;;19.92;6.75;;;564.00;1177.60;;;;;;4934475;29;20373;-69
2021/10/01 12:16:04;;;;;;;14.02;6.72;;;564.00;1177.60;;;;;;4937494;29;20023;-68
2021/10/01 12:18:45;;;;;;;13.93;6.50;;;564.00;1152.00;;;;;;4937647;29;20462;-69
2021/10/01 12:21:20;;;;;;;21.80;6.20;;;564.00;1152.00;;;;;;4936075;29;20055;-69
2021/10/01 12:23:48;;;;;;;16.50;5.75;;;564.00;1126.40;;;;;;4937657;29;20016;-69
2021/10/01 12:26:21;;;;;;;17.35;6.20;;;564.00;1152.00;;;;;;4937460;29;20035;-69
2021/10/01 12:29:05;;;;;;;14.38;5.72;;;563.90;1152.00;;;;;;4937520;29;20036;-68
2021/10/01 12:31:38;;;;;;;18.42;6.50;;;563.90;1126.40;;;;;;4935914;29;20024;-69
2021/10/01 12:34:08;;;;;;;9.52;5.72;;;563.80;1126.40;;;;;;4937335;29;20030;-69
2021/10/01 12:36:35;;;;;;;16.27;6.22;;;563.80;1152.00;;;;;;4936985;29;20422;-68
2021/10/01 12:39:01;;;;;;;13.57;6.18;;;563.80;1100.80;;;;;;4938113;29;20107;-69
2021/10/01 12:41:29;;;;;;;20.48;7.10;;;563.80;1126.40;;;;;;4936925;29;20050;-70
2021/10/01 12:43:59;;;;;;;11.02;5.93;;;563.80;1126.40;;;;;;4936882;29;20051;-69
2021/10/01 12:46:45;;;;;;;15.15;6.80;;;563.80;1126.40;;;;;;4914897;29;20370;-69
2021/10/01 12:49:24;;;;;;;17.85;6.90;;;563.80;1126.40;;;;;;4938544;29;20430;-70
2021/10/01 12:52:01;;;;;;;18.42;8.18;;;563.80;1152.00;;;;;;4938563;29;20024;-68
2021/10/01 12:54:35;;;;;;;19.25;6.88;;;563.80;1152.00;;;;;;4938547;29;20542;-68
2021/10/01 12:57:29;;;;;;;14.32;7.47;;;563.80;1177.60;;;;;;4931079;29;20024;-68
2021/10/01 13:00:02;;;;;;;16.95;7.18;;;563.80;1152.00;;;;;;4935395;29;20480;-68
2021/10/01 13:02:34;;;;;;;19.33;7.75;;;563.80;1152.00;;;;;;4938225;29;20091;-69
2021/10/01 13:05:24;;;;;;;16.92;7.40;;;563.80;1177.60;;;;;;4938434;29;20028;-69
2021/10/01 13:07:53;;;;;;;15.45;8.75;;;563.80;1152.00;;;;;;4938386;29;20030;-68
2021/10/01 13:10:26;;;;;;;17.00;9.05;;;563.80;1152.00;;;;;;4938307;29;20106;-68
2021/10/01 13:13:11;;;;;;;20.30;9.80;;;563.70;1177.60;;;;;;4938427;29;20023;-69
2021/10/01 13:15:37;;;;;;;25.38;10.73;;;563.70;1177.60;;;;;;4938245;29;20059;-68
2021/10/01 13:18:08;;;;;;;27.58;9.20;;;563.70;1177.60;;;;;;4938233;29;20047;-70
2021/10/01 13:20:37;;;;;;;12.40;7.20;;;563.70;1177.60;;;;;;4938004;29;20038;-68
2021/10/01 13:23:28;;;;;;;13.73;7.07;;;563.70;1177.60;;;;;;4937829;29;20106;-69
2021/10/01 13:25:56;;;;;;;12.35;6.72;;;563.70;1177.60;;;;;;4937937;29;20035;-68
2021/10/01 13:28:25;;;;;;;17.63;7.50;;;563.60;1177.60;;;;;;4937854;29;20039;-68
2021/10/01 13:30:51;;;;;;;26.00;9.38;;;563.60;1203.20;;;;;;4937913;29;20027;-68
2021/10/01 13:33:19;;;;;;;19.20;9.25;;;563.60;1203.20;;;;;;4937850;29;20091;-69
2021/10/01 13:35:45;;;;;;;25.35;10.38;;;563.60;1203.20;;;;;;4937656;29;20411;-67
2021/10/01 13:38:12;;;;;;;18.25;8.88;;;563.60;1203.20;;;;;;4937688;29;20467;-68
2021/10/01 13:40:40;;;;;;;21.35;8.65;;;563.60;1203.20;;;;;;4920356;29;20039;-69
2021/10/01 13:43:06;;;;;;;19.05;8.32;;;563.50;1203.20;;;;;;4929923;29;20030;-69
2021/10/01 13:45:33;;;;;;;17.10;7.28;;;563.50;1228.80;;;;;;4937620;29;20031;-68
2021/10/01 13:47:59;;;;;;;17.02;7.22;;;563.40;1228.80;;;;;;4937543;29;20031;-68